Time;durP1;ratioP1;P1;durP2;ratioP2;P2;SDS_P1;SDS_P2;PMS_P1;PMS_P2;Temp;Humidity;BMP_temperature;BMP_pressure;BME280_temperature;BME280_humidity;BME280_pressure;Samples;Min_cycle;Max_cycle;Signal;HPM_P1;HPM_P2
2021/06/18 00:00:11;;;;;;;32.20;30.20;;;22.80;71.40;;;;;;5060311;28;21354;-82
2021/06/18 00:02:38;;;;;;;31.77;29.87;;;22.80;71.50;;;;;;4962960;28;20473;-80
2021/06/18 00:05:06;;;;;;;30.27;28.53;;;22.80;71.60;;;;;;5058023;28;20931;-81
2021/06/18 00:07:33;;;;;;;32.63;30.40;;;22.80;71.70;;;;;;5014314;28;20482;-80
2021/06/18 00:10:00;;;;;;;31.20;29.20;;;22.70;72.20;;;;;;4974337;28;20577;-80
2021/06/18 00:12:27;;;;;;;31.67;29.70;;;22.60;72.30;;;;;;4983139;28;20469;-81
2021/06/18 00:14:57;;;;;;;32.40;30.40;;;22.60;72.60;;;;;;4999948;28;20488;-80
2021/06/18 00:17:25;;;;;;;33.77;31.73;;;22.40;73.10;;;;;;5005182;28;20542;-81
2021/06/18 00:19:52;;;;;;;31.90;29.97;;;22.40;73.30;;;;;;4969129;28;20526;-81
2021/06/18 00:22:20;;;;;;;31.93;30.03;;;22.40;73.40;;;;;;4972593;28;20476;-80
2021/06/18 00:24:47;;;;;;;32.20;30.20;;;22.30;73.80;;;;;;5040164;28;20604;-80
2021/06/18 00:27:13;;;;;;;32.20;30.20;;;22.20;73.90;;;;;;5027715;28;20486;-80
2021/06/18 00:29:40;;;;;;;31.43;29.63;;;22.20;73.90;;;;;;5019327;28;20519;-80
2021/06/18 00:32:08;;;;;;;31.47;29.57;;;22.20;73.90;;;;;;5021710;28;20557;-80
2021/06/18 00:34:36;;;;;;;31.63;29.63;;;22.10;74.10;;;;;;4967735;28;20538;-80
2021/06/18 00:37:03;;;;;;;32.70;30.60;;;22.00;74.40;;;;;;4972508;28;20467;-80
2021/06/18 00:39:30;;;;;;;32.20;30.40;;;21.90;74.80;;;;;;4974079;28;20620;-80
2021/06/18 00:41:58;;;;;;;32.27;30.20;;;21.90;74.80;;;;;;4972972;28;20619;-80
2021/06/18 00:44:24;;;;;;;31.67;29.67;;;22.00;74.60;;;;;;5002452;28;20981;-80
2021/06/18 00:46:51;;;;;;;31.90;30.00;;;21.90;74.90;;;;;;5027696;28;20542;-81
2021/06/18 00:49:18;;;;;;;32.53;30.67;;;21.90;74.80;;;;;;4985554;28;20491;-80
2021/06/18 00:51:47;;;;;;;32.90;30.90;;;22.00;74.40;;;;;;4992796;28;20469;-80
2021/06/18 00:54:14;;;;;;;32.80;30.50;;;21.90;74.60;;;;;;4974861;28;20492;-80
2021/06/18 00:56:41;;;;;;;32.30;30.20;;;21.90;74.90;;;;;;4974045;28;20485;-80
2021/06/18 00:59:08;;;;;;;31.80;30.00;;;21.90;75.00;;;;;;4976776;28;21214;-80
2021/06/18 01:01:35;;;;;;;31.83;29.80;;;21.80;75.30;;;;;;4986631;28;20483;-80
2021/06/18 01:04:03;;;;;;;31.90;30.00;;;21.80;75.40;;;;;;5046830;28;20581;-80
2021/06/18 01:06:35;;;;;;;31.73;29.73;;;21.70;75.40;;;;;;4990475;28;20477;-81
2021/06/18 01:09:08;;;;;;;31.70;29.90;;;21.60;75.60;;;;;;4980169;28;20590;-81
2021/06/18 01:11:44;;;;;;;33.53;31.33;;;21.60;75.60;;;;;;4969751;28;20543;-81
2021/06/18 01:14:16;;;;;;;32.30;30.30;;;21.60;75.80;;;;;;4967606;28;20482;-81
2021/06/18 01:16:49;;;;;;;32.60;30.80;;;21.60;75.50;;;;;;5051737;28;20918;-81
2021/06/18 01:19:25;;;;;;;32.90;30.60;;;21.50;75.60;;;;;;5001900;28;20932;-81
2021/06/18 01:21:54;;;;;;;32.30;30.40;;;21.50;75.80;;;;;;4978070;28;20576;-80
2021/06/18 01:24:35;;;;;;;31.40;29.40;;;21.50;75.80;;;;;;4970607;28;20491;-81
2021/06/18 01:27:26;;;;;;;31.83;29.87;;;21.50;75.70;;;;;;4965917;28;20608;-81
2021/06/18 01:29:58;;;;;;;32.20;30.10;;;21.50;75.70;;;;;;4969030;28;20561;-81
2021/06/18 01:32:42;;;;;;;32.33;30.23;;;21.50;75.80;;;;;;5003479;28;20497;-80
2021/06/18 01:35:14;;;;;;;32.50;30.70;;;21.40;76.00;;;;;;4973288;28;20466;-80
2021/06/18 01:37:44;;;;;;;31.43;29.47;;;21.40;76.10;;;;;;5041749;28;20977;-82
2021/06/18 01:40:12;;;;;;;31.93;29.83;;;21.40;75.90;;;;;;4997357;28;20461;-80
2021/06/18 01:42:42;;;;;;;32.30;30.10;;;21.40;75.90;;;;;;4969894;28;20568;-80
2021/06/18 01:45:14;;;;;;;32.13;30.13;;;21.30;76.30;;;;;;5009357;28;20956;-80
2021/06/18 01:47:43;;;;;;;31.77;29.57;;;21.20;76.40;;;;;;4959419;28;20484;-80
2021/06/18 01:50:15;;;;;;;31.80;29.83;;;21.20;76.60;;;;;;4987103;28;20851;-80
2021/06/18 01:52:43;;;;;;;32.30;30.30;;;21.20;76.30;;;;;;5024175;28;20439;-80
2021/06/18 01:55:12;;;;;;;32.17;30.17;;;21.20;76.20;;;;;;5030873;28;20452;-80
2021/06/18 01:57:41;;;;;;;31.67;29.57;;;21.20;76.20;;;;;;4980270;28;20467;-80
2021/06/18 02:00:10;;;;;;;31.70;29.90;;;21.20;76.40;;;;;;5017658;28;20450;-80
2021/06/18 02:02:38;;;;;;;32.40;30.60;;;21.10;76.50;;;;;;4978604;28;20494;-80
2021/06/18 02:05:06;;;;;;;31.80;29.90;;;21.10;76.90;;;;;;5052813;28;20499;-80
2021/06/18 02:07:36;;;;;;;31.40;29.50;;;21.00;77.10;;;;;;5019378;28;20509;-80
2021/06/18 02:10:06;;;;;;;32.27;30.27;;;21.00;77.10;;;;;;5036081;28;20462;-80
2021/06/18 02:12:33;;;;;;;32.30;30.40;;;21.00;77.00;;;;;;4991768;28;20502;-80
2021/06/18 02:15:01;;;;;;;31.63;29.93;;;21.00;77.00;;;;;;5040246;28;20480;-80
2021/06/18 02:17:31;;;;;;;31.00;29.20;;;21.00;76.90;;;;;;5062306;28;20829;-79
2021/06/18 02:19:59;;;;;;;31.07;29.10;;;21.00;77.00;;;;;;5070464;28;20437;-80
2021/06/18 02:22:27;;;;;;;32.80;30.80;;;20.90;77.00;;;;;;5013143;28;20464;-80
2021/06/18 02:24:55;;;;;;;32.40;30.53;;;20.90;77.30;;;;;;5026609;28;20494;-80
2021/06/18 02:27:23;;;;;;;32.97;31.07;;;20.80;77.40;;;;;;5003066;28;20518;-80
2021/06/18 02:29:49;;;;;;;34.07;32.00;;;20.70;77.70;;;;;;5032640;28;20501;-80
2021/06/18 02:32:17;;;;;;;31.20;29.30;;;20.70;77.90;;;;;;5000107;28;20467;-80
2021/06/18 02:34:46;;;;;;;32.27;30.37;;;20.60;78.00;;;;;;5021806;28;20782;-80
2021/06/18 02:37:13;;;;;;;33.33;30.60;;;20.70;77.90;;;;;;5068000;28;20454;-80
2021/06/18 02:39:42;;;;;;;32.97;30.97;;;20.60;78.00;;;;;;5021830;28;20463;-80
2021/06/18 02:42:10;;;;;;;32.63;30.50;;;20.60;78.10;;;;;;4977897;28;20751;-80
2021/06/18 02:44:39;;;;;;;33.93;32.00;;;20.50;78.30;;;;;;5010896;28;20501;-80
2021/06/18 02:47:10;;;;;;;32.83;30.73;;;20.50;78.30;;;;;;5030727;28;21133;-80
2021/06/18 02:49:45;;;;;;;32.00;29.90;;;20.60;78.10;;;;;;5027039;28;20482;-80
2021/06/18 02:52:20;;;;;;;32.73;30.67;;;20.60;78.20;;;;;;4980646;28;20466;-80
2021/06/18 02:54:57;;;;;;;32.80;30.83;;;20.60;78.00;;;;;;4992551;28;20498;-80
2021/06/18 02:57:28;;;;;;;32.70;30.80;;;20.60;78.10;;;;;;5012639;28;20557;-80
2021/06/18 03:00:01;;;;;;;31.60;29.80;;;20.60;78.00;;;;;;5012462;28;20495;-80
2021/06/18 03:02:33;;;;;;;32.53;30.53;;;20.60;77.80;;;;;;5016510;28;20454;-78
2021/06/18 03:05:03;;;;;;;33.67;31.77;;;20.60;77.70;;;;;;4974917;28;20479;-80
2021/06/18 03:07:34;;;;;;;32.93;31.03;;;20.50;78.00;;;;;;5007732;28;20470;-80
2021/06/18 03:10:05;;;;;;;34.17;32.10;;;20.50;78.10;;;;;;5031655;28;20545;-80
2021/06/18 03:12:33;;;;;;;33.50;31.50;;;20.50;77.60;;;;;;4994665;28;20494;-80
2021/06/18 03:15:04;;;;;;;31.90;30.10;;;20.50;77.30;;;;;;5039443;28;20517;-80
2021/06/18 03:17:31;;;;;;;34.83;32.20;;;20.60;76.50;;;;;;5021934;28;20558;-80
2021/06/18 03:20:02;;;;;;;32.20;30.23;;;20.80;75.40;;;;;;4997370;28;20538;-80
2021/06/18 03:22:33;;;;;;;33.17;31.17;;;20.90;74.40;;;;;;4981866;28;20462;-80
2021/06/18 03:25:03;;;;;;;34.03;32.00;;;20.90;73.90;;;;;;5011873;28;20474;-80
2021/06/18 03:27:32;;;;;;;31.93;30.10;;;21.00;74.30;;;;;;5003444;28;21326;-80
2021/06/18 03:29:59;;;;;;;32.80;30.90;;;21.10;73.90;;;;;;4997742;28;20467;-80
2021/06/18 03:32:27;;;;;;;34.60;32.30;;;21.10;73.80;;;;;;4985539;28;20570;-80
2021/06/18 03:34:55;;;;;;;32.77;30.93;;;21.20;73.50;;;;;;5043680;28;20470;-79
2021/06/18 03:37:22;;;;;;;35.20;32.90;;;21.30;73.40;;;;;;4998613;28;20733;-80
2021/06/18 03:39:51;;;;;;;34.00;32.00;;;21.30;73.00;;;;;;5020017;28;20483;-80
2021/06/18 03:42:18;;;;;;;34.53;32.30;;;21.50;72.60;;;;;;4988159;28;20530;-80
2021/06/18 03:44:46;;;;;;;34.57;32.37;;;21.70;71.80;;;;;;5033015;28;20505;-80
2021/06/18 03:47:15;;;;;;;33.90;32.00;;;21.80;71.90;;;;;;4991573;28;20561;-80
2021/06/18 03:49:44;;;;;;;33.93;31.83;;;21.90;71.70;;;;;;4982584;28;20497;-80
2021/06/18 03:52:11;;;;;;;33.57;31.33;;;21.90;71.50;;;;;;4979114;28;20475;-80
2021/06/18 03:54:39;;;;;;;34.27;32.17;;;22.20;70.80;;;;;;4973586;28;20485;-80
2021/06/18 03:57:08;;;;;;;33.17;31.23;;;22.40;70.20;;;;;;4993673;28;20458;-80
2021/06/18 03:59:41;;;;;;;34.83;32.70;;;22.60;69.60;;;;;;5049896;28;20472;-80
2021/06/18 04:02:10;;;;;;;36.97;34.77;;;22.70;69.10;;;;;;5020895;28;20549;-80
2021/06/18 04:04:38;;;;;;;33.07;31.17;;;22.90;68.50;;;;;;4985251;28;20487;-80
2021/06/18 04:07:07;;;;;;;33.33;31.33;;;22.70;68.90;;;;;;5014525;28;20505;-80
2021/06/18 04:09:34;;;;;;;34.80;32.60;;;22.60;69.30;;;;;;5039463;28;20498;-80
2021/06/18 04:12:01;;;;;;;33.83;31.73;;;22.50;69.90;;;;;;5017872;28;20498;-80
2021/06/18 04:14:30;;;;;;;34.70;32.80;;;22.50;69.90;;;;;;4982852;28;20547;-80
2021/06/18 04:16:57;;;;;;;34.27;32.07;;;22.60;69.80;;;;;;4981598;28;20522;-80
2021/06/18 04:19:25;;;;;;;34.40;32.20;;;22.70;69.60;;;;;;5002711;28;21113;-80
2021/06/18 04:21:53;;;;;;;35.33;33.13;;;22.70;69.30;;;;;;4996351;28;20493;-81
2021/06/18 04:24:20;;;;;;;33.77;31.87;;;22.60;70.20;;;;;;4988500;28;20488;-79
2021/06/18 04:26:47;;;;;;;35.90;33.33;;;22.60;70.20;;;;;;4980714;28;20461;-81
2021/06/18 04:29:14;;;;;;;34.17;32.27;;;22.70;69.70;;;;;;5049110;28;20482;-81
2021/06/18 04:31:44;;;;;;;35.43;32.87;;;22.70;70.20;;;;;;5003485;28;20470;-80
2021/06/18 04:34:11;;;;;;;34.53;32.43;;;22.80;69.70;;;;;;4990181;28;20485;-82
2021/06/18 04:36:39;;;;;;;33.97;31.77;;;22.80;69.30;;;;;;4968609;28;20532;-80
2021/06/18 04:39:06;;;;;;;35.60;33.50;;;22.90;69.30;;;;;;4966434;28;20554;-82
2021/06/18 04:41:34;;;;;;;34.83;32.33;;;22.90;69.00;;;;;;4975508;28;20516;-80
2021/06/18 04:44:01;;;;;;;34.43;32.33;;;23.00;69.20;;;;;;4970991;28;20554;-82
2021/06/18 04:46:28;;;;;;;35.40;33.10;;;22.90;69.80;;;;;;4970804;28;20542;-83
2021/06/18 04:48:56;;;;;;;34.93;32.80;;;22.90;69.90;;;;;;4971268;28;20474;-84
2021/06/18 04:51:23;;;;;;;34.70;32.50;;;23.00;69.70;;;;;;4973790;28;20468;-78
2021/06/18 04:53:53;;;;;;;33.37;31.17;;;23.00;69.60;;;;;;4969586;28;20479;-82
2021/06/18 04:56:20;;;;;;;33.73;31.77;;;23.10;69.50;;;;;;4966768;28;20494;-81
2021/06/18 04:58:48;;;;;;;34.83;32.67;;;23.20;69.30;;;;;;4973745;28;20462;-80
2021/06/18 05:01:15;;;;;;;36.23;34.03;;;23.30;69.10;;;;;;4972952;28;20466;-80
2021/06/18 05:03:42;;;;;;;36.90;34.60;;;23.30;69.30;;;;;;4970036;28;20478;-80
2021/06/18 05:06:11;;;;;;;34.27;32.20;;;23.20;69.10;;;;;;4971801;28;20566;-80
2021/06/18 05:08:37;;;;;;;34.20;32.10;;;23.40;69.10;;;;;;4969459;28;20590;-79
2021/06/18 05:11:04;;;;;;;33.73;31.63;;;23.40;69.20;;;;;;4969887;28;20462;-80
2021/06/18 05:13:34;;;;;;;36.57;34.43;;;23.50;69.40;;;;;;4966581;28;20515;-82
2021/06/18 05:16:01;;;;;;;34.23;32.03;;;23.60;69.20;;;;;;4975505;28;20512;-82
2021/06/18 05:18:29;;;;;;;35.30;33.10;;;23.70;68.80;;;;;;4978764;28;20505;-80
2021/06/18 05:20:55;;;;;;;34.10;31.93;;;23.80;68.60;;;;;;4979347;28;20466;-81
2021/06/18 05:23:24;;;;;;;34.83;32.73;;;24.00;68.40;;;;;;4982795;28;20550;-80
2021/06/18 05:25:53;;;;;;;36.43;33.73;;;24.10;68.00;;;;;;4982221;28;20554;-80
2021/06/18 05:28:20;;;;;;;35.50;33.17;;;24.10;68.10;;;;;;4981376;28;20501;-79
2021/06/18 05:30:47;;;;;;;35.63;33.53;;;24.20;68.20;;;;;;4980960;28;20477;-81
2021/06/18 05:33:14;;;;;;;36.57;34.37;;;24.20;68.10;;;;;;4980278;28;20498;-81
2021/06/18 05:35:45;;;;;;;36.50;34.30;;;24.30;68.10;;;;;;4981274;28;20462;-81
2021/06/18 05:38:13;;;;;;;35.67;33.47;;;24.40;67.80;;;;;;4970449;28;20507;-80
2021/06/18 05:40:41;;;;;;;40.00;37.60;;;24.50;67.40;;;;;;4980004;28;20463;-80
2021/06/18 05:43:08;;;;;;;35.90;33.80;;;24.50;67.30;;;;;;4979205;28;20478;-79
2021/06/18 05:45:36;;;;;;;37.07;34.67;;;24.60;67.40;;;;;;4981897;28;20497;-80
2021/06/18 05:48:03;;;;;;;38.77;36.30;;;24.70;67.20;;;;;;4972665;28;20474;-78
2021/06/18 05:50:30;;;;;;;37.23;35.03;;;24.80;66.90;;;;;;4970050;28;20960;-79
2021/06/18 05:52:57;;;;;;;36.90;34.47;;;25.00;65.90;;;;;;4964304;28;20474;-79
2021/06/18 05:55:25;;;;;;;36.77;34.47;;;25.10;66.00;;;;;;4964444;28;20473;-79
2021/06/18 05:57:54;;;;;;;36.97;34.77;;;25.30;65.80;;;;;;4984757;28;20620;-79
2021/06/18 06:00:21;;;;;;;37.40;35.07;;;25.40;65.70;;;;;;4964003;28;21269;-79
2021/06/18 06:02:48;;;;;;;39.60;36.90;;;25.50;64.80;;;;;;4964580;28;20462;-79
2021/06/18 06:05:16;;;;;;;37.47;35.20;;;25.70;63.90;;;;;;4964294;28;20465;-79
2021/06/18 06:07:46;;;;;;;37.97;35.80;;;25.70;64.00;;;;;;4960376;28;20483;-81
2021/06/18 06:10:13;;;;;;;34.53;32.50;;;26.00;63.10;;;;;;4973291;28;20478;-81
2021/06/18 06:12:41;;;;;;;37.10;34.90;;;26.10;62.40;;;;;;4990693;28;20562;-81
2021/06/18 06:15:10;;;;;;;38.47;36.27;;;26.20;62.00;;;;;;4973916;28;21049;-81
2021/06/18 06:17:37;;;;;;;38.87;36.30;;;26.30;61.80;;;;;;4984618;28;20497;-80
2021/06/18 06:20:14;;;;;;;41.60;38.90;;;26.50;60.60;;;;;;4976196;28;20483;-81
2021/06/18 06:22:41;;;;;;;41.90;39.40;;;26.60;60.40;;;;;;4973485;28;20509;-81
2021/06/18 06:25:09;;;;;;;39.57;37.27;;;26.70;59.70;;;;;;4976657;28;20472;-81
2021/06/18 06:27:36;;;;;;;39.60;36.70;;;26.90;59.40;;;;;;4971898;28;20462;-80
2021/06/18 06:30:04;;;;;;;37.43;35.23;;;27.00;58.40;;;;;;5016673;28;20484;-80
2021/06/18 06:32:33;;;;;;;36.20;34.07;;;27.00;57.90;;;;;;4984522;28;20494;-81
2021/06/18 06:35:02;;;;;;;40.50;38.00;;;27.00;58.20;;;;;;5052499;28;20522;-81
2021/06/18 06:37:30;;;;;;;39.97;37.60;;;27.20;57.90;;;;;;4980958;28;20451;-80
2021/06/18 06:39:57;;;;;;;38.97;36.43;;;27.20;57.90;;;;;;4978438;28;20489;-80
2021/06/18 06:42:24;;;;;;;39.40;37.00;;;27.20;57.90;;;;;;4974808;28;20554;-80
2021/06/18 06:44:51;;;;;;;40.37;37.67;;;27.30;57.70;;;;;;4983510;28;20597;-81
2021/06/18 06:47:17;;;;;;;40.57;37.90;;;27.40;57.50;;;;;;4978052;28;20462;-81
2021/06/18 06:49:47;;;;;;;40.57;38.13;;;27.40;57.00;;;;;;4970939;28;20585;-80
2021/06/18 06:52:14;;;;;;;38.97;36.47;;;27.50;57.50;;;;;;4990484;28;20566;-81
2021/06/18 06:54:41;;;;;;;39.60;36.90;;;27.50;57.30;;;;;;4975933;28;20565;-81
2021/06/18 06:57:08;;;;;;;39.20;36.70;;;27.80;56.40;;;;;;4972652;28;20486;-80
2021/06/18 06:59:35;;;;;;;35.93;33.83;;;27.70;56.50;;;;;;4976731;28;20538;-80
2021/06/18 07:02:03;;;;;;;36.20;33.73;;;27.80;56.50;;;;;;4978566;28;20743;-81
2021/06/18 07:04:30;;;;;;;38.10;35.70;;;27.80;56.10;;;;;;4981964;28;20488;-80
2021/06/18 07:06:58;;;;;;;34.97;32.87;;;27.70;56.40;;;;;;4968908;28;20566;-81
2021/06/18 07:09:25;;;;;;;37.70;35.33;;;27.80;56.50;;;;;;4991416;28;20485;-80
2021/06/18 07:11:52;;;;;;;36.53;34.13;;;27.90;56.90;;;;;;4975734;28;20583;-80
2021/06/18 07:14:19;;;;;;;37.97;35.57;;;28.10;56.50;;;;;;4972982;28;20485;-80
2021/06/18 07:16:46;;;;;;;39.00;36.50;;;28.30;55.40;;;;;;4967950;28;20982;-79
2021/06/18 07:19:13;;;;;;;40.80;37.33;;;28.20;55.60;;;;;;4969681;28;20463;-79
2021/06/18 07:21:39;;;;;;;38.60;36.20;;;28.30;56.00;;;;;;4971922;28;20561;-80
2021/06/18 07:24:08;;;;;;;38.70;36.20;;;28.40;55.90;;;;;;4969579;28;20484;-79
2021/06/18 07:26:35;;;;;;;37.27;35.07;;;28.30;55.30;;;;;;4966884;28;20508;-80
2021/06/18 07:29:02;;;;;;;38.33;36.03;;;28.30;55.70;;;;;;4967522;28;20507;-79
2021/06/18 07:31:29;;;;;;;40.40;37.77;;;28.50;55.70;;;;;;4969315;28;20463;-79
2021/06/18 07:33:56;;;;;;;37.60;35.30;;;28.60;54.90;;;;;;4970236;28;20484;-79
2021/06/18 07:36:23;;;;;;;40.30;37.47;;;28.50;54.70;;;;;;4963977;28;20465;-79
2021/06/18 07:38:50;;;;;;;38.10;35.00;;;28.60;54.90;;;;;;4967280;28;20573;-79
2021/06/18 07:41:18;;;;;;;37.97;35.37;;;28.80;55.00;;;;;;4967107;28;20465;-79
2021/06/18 07:43:45;;;;;;;40.17;37.40;;;28.90;54.50;;;;;;4969365;28;20482;-79
2021/06/18 07:46:12;;;;;;;40.27;37.57;;;29.00;54.50;;;;;;4971384;28;20490;-79
2021/06/18 07:48:39;;;;;;;38.80;35.70;;;29.10;54.20;;;;;;4970862;28;20531;-80
2021/06/18 07:51:06;;;;;;;39.97;37.10;;;29.30;53.70;;;;;;4971591;28;20549;-80
2021/06/18 07:53:33;;;;;;;41.30;38.80;;;29.30;53.30;;;;;;4970664;28;20498;-80
2021/06/18 07:56:00;;;;;;;38.57;36.17;;;29.30;53.50;;;;;;4972926;28;20463;-79
2021/06/18 07:58:29;;;;;;;37.87;35.23;;;29.10;53.40;;;;;;4974248;28;20898;-79
2021/06/18 08:00:56;;;;;;;39.27;36.63;;;29.20;53.30;;;;;;4976343;28;21075;-80
2021/06/18 08:03:23;;;;;;;37.70;35.10;;;29.30;53.60;;;;;;4974716;28;20492;-80
2021/06/18 08:05:50;;;;;;;40.97;38.40;;;29.40;53.30;;;;;;4979400;28;20469;-81
2021/06/18 08:08:16;;;;;;;37.33;34.80;;;29.50;53.10;;;;;;4976772;28;20918;-80
2021/06/18 08:10:43;;;;;;;41.17;38.20;;;29.60;52.90;;;;;;4974004;28;22325;-80
2021/06/18 08:13:10;;;;;;;41.53;38.60;;;29.70;52.40;;;;;;4971395;28;20482;-77
2021/06/18 08:15:39;;;;;;;38.23;35.80;;;29.80;52.50;;;;;;4966664;28;20535;-79
2021/06/18 08:18:06;;;;;;;37.87;35.20;;;30.00;51.80;;;;;;4965194;28;21203;-79
2021/06/18 08:20:34;;;;;;;38.97;36.27;;;29.80;52.10;;;;;;4966576;28;20561;-78
2021/06/18 08:23:01;;;;;;;40.23;37.70;;;29.70;52.60;;;;;;4968916;28;21101;-78
2021/06/18 08:25:28;;;;;;;37.00;34.60;;;29.70;52.90;;;;;;4963270;28;20467;-79
2021/06/18 08:27:54;;;;;;;38.07;35.57;;;29.80;53.50;;;;;;4964101;28;20475;-79
2021/06/18 08:30:24;;;;;;;38.90;36.37;;;29.90;53.60;;;;;;4987680;28;20473;-78
2021/06/18 08:32:53;;;;;;;37.57;35.07;;;30.10;53.30;;;;;;4963190;28;20537;-79
2021/06/18 08:35:20;;;;;;;40.30;37.80;;;30.20;52.90;;;;;;4963479;28;20469;-79
2021/06/18 08:37:47;;;;;;;40.93;38.23;;;30.10;53.70;;;;;;4965579;28;20455;-79
2021/06/18 08:40:15;;;;;;;42.13;39.30;;;30.10;54.30;;;;;;4960515;28;20447;-79
2021/06/18 08:42:43;;;;;;;41.57;38.70;;;30.20;54.50;;;;;;4961965;28;20512;-79
2021/06/18 08:45:11;;;;;;;39.70;37.20;;;30.30;54.20;;;;;;4963629;28;20473;-78
2021/06/18 08:47:38;;;;;;;42.83;40.23;;;30.40;53.10;;;;;;4961580;28;20502;-78
2021/06/18 08:50:08;;;;;;;40.13;37.67;;;30.40;52.80;;;;;;4948211;28;20482;-79
2021/06/18 08:52:39;;;;;;;40.50;37.60;;;30.40;52.40;;;;;;4958831;28;20473;-79
2021/06/18 08:55:08;;;;;;;40.33;37.57;;;30.30;52.50;;;;;;4961191;28;20482;-79
2021/06/18 08:57:35;;;;;;;39.13;36.70;;;30.20;52.70;;;;;;4959215;28;21249;-79
2021/06/18 09:00:02;;;;;;;40.20;37.63;;;30.20;53.50;;;;;;4957446;28;20993;-78
2021/06/18 09:02:29;;;;;;;40.13;37.83;;;30.30;53.70;;;;;;4959700;28;20475;-79
2021/06/18 09:05:12;;;;;;;42.07;39.27;;;30.40;52.50;;;;;;4957999;28;20542;-79
2021/06/18 09:07:53;;;;;;;41.67;39.10;;;30.40;52.30;;;;;;4967470;28;20456;-79
2021/06/18 09:10:26;;;;;;;41.97;39.27;;;30.50;51.80;;;;;;4961877;28;20470;-80
2021/06/18 09:13:14;;;;;;;44.00;41.27;;;30.60;51.30;;;;;;4961234;28;20489;-80
2021/06/18 09:15:44;;;;;;;43.80;41.00;;;30.70;51.40;;;;;;4958301;28;20466;-79
2021/06/18 09:18:29;;;;;;;43.23;40.53;;;30.90;51.90;;;;;;4961121;28;20471;-80
2021/06/18 09:21:23;;;;;;;39.80;37.40;;;31.00;51.80;;;;;;4959744;28;20454;-79
2021/06/18 09:23:53;;;;;;;41.87;39.10;;;31.00;51.70;;;;;;4960559;28;20595;-79
2021/06/18 09:26:29;;;;;;;42.50;39.63;;;31.00;51.70;;;;;;4957437;28;20465;-79
2021/06/18 09:29:15;;;;;;;40.47;38.07;;;31.00;51.90;;;;;;4954588;28;20462;-79
2021/06/18 09:31:47;;;;;;;41.50;38.90;;;30.90;51.90;;;;;;4961193;28;20458;-79
2021/06/18 09:34:16;;;;;;;41.20;38.40;;;31.00;51.90;;;;;;4961594;28;20561;-79
2021/06/18 09:36:44;;;;;;;40.73;38.13;;;31.10;51.80;;;;;;4957506;28;20518;-79
2021/06/18 09:39:15;;;;;;;40.33;37.83;;;31.40;51.40;;;;;;4961364;28;20948;-79
2021/06/18 09:41:44;;;;;;;40.70;38.00;;;31.30;51.20;;;;;;4951978;28;20502;-79
2021/06/18 09:44:14;;;;;;;39.13;36.87;;;31.40;50.70;;;;;;4954077;28;20489;-79
2021/06/18 09:46:46;;;;;;;41.57;38.87;;;31.50;51.00;;;;;;4955305;28;20537;-79
2021/06/18 09:49:16;;;;;;;39.77;37.23;;;31.60;50.70;;;;;;4964842;28;20447;-79
2021/06/18 09:51:58;;;;;;;39.23;36.60;;;31.70;50.70;;;;;;4980958;28;20549;-79
2021/06/18 09:54:31;;;;;;;39.20;36.67;;;31.70;49.70;;;;;;4962933;28;20479;-79
2021/06/18 09:57:08;;;;;;;39.73;37.33;;;31.70;49.60;;;;;;4959644;28;20454;-80
2021/06/18 09:59:52;;;;;;;40.13;37.73;;;31.80;49.50;;;;;;4952755;28;20463;-79
2021/06/18 10:02:21;;;;;;;39.77;37.27;;;31.80;48.60;;;;;;4951069;28;20465;-79
2021/06/18 10:04:51;;;;;;;41.13;38.77;;;31.80;48.40;;;;;;4962715;28;20493;-80
2021/06/18 10:07:27;;;;;;;39.20;36.43;;;31.80;48.00;;;;;;4960447;28;20473;-79
2021/06/18 10:09:55;;;;;;;43.57;40.90;;;31.70;48.20;;;;;;4963910;28;20497;-79
2021/06/18 10:12:22;;;;;;;38.50;36.10;;;31.80;48.80;;;;;;4955319;28;20459;-79
2021/06/18 10:14:50;;;;;;;38.00;35.73;;;31.90;48.30;;;;;;4960913;28;20550;-79
2021/06/18 10:17:17;;;;;;;41.00;38.60;;;32.00;48.40;;;;;;4961362;28;20481;-79
2021/06/18 10:19:44;;;;;;;39.73;37.33;;;32.00;48.00;;;;;;4961090;28;20553;-79
2021/06/18 10:22:13;;;;;;;39.00;36.40;;;32.10;47.80;;;;;;4960346;28;20556;-79
2021/06/18 10:24:46;;;;;;;41.00;38.60;;;32.10;48.40;;;;;;4962720;28;20489;-79
2021/06/18 10:27:18;;;;;;;39.90;37.60;;;32.20;47.50;;;;;;4961767;28;20545;-79
2021/06/18 10:29:46;;;;;;;41.00;38.40;;;32.20;47.10;;;;;;4961778;28;20474;-79
2021/06/18 10:32:36;;;;;;;42.00;39.50;;;32.20;47.50;;;;;;4961478;28;20478;-79
2021/06/18 10:35:06;;;;;;;41.53;39.03;;;32.10;47.60;;;;;;4962982;28;20475;-79
2021/06/18 10:37:34;;;;;;;39.87;37.27;;;32.00;47.80;;;;;;4960983;28;20896;-79
2021/06/18 10:40:14;;;;;;;39.10;36.93;;;32.10;46.50;;;;;;4961693;28;20457;-79
2021/06/18 10:43:09;;;;;;;42.10;39.50;;;32.00;47.00;;;;;;4960967;28;20592;-79
2021/06/18 10:46:23;;;;;;;43.50;40.70;;;32.10;47.10;;;;;;4962188;28;20478;-79
2021/06/18 10:49:08;;;;;;;37.73;35.43;;;32.20;46.90;;;;;;4949543;28;20558;-79
2021/06/18 10:51:43;;;;;;;41.57;39.07;;;32.20;46.30;;;;;;4959697;28;20482;-79
2021/06/18 10:54:15;;;;;;;39.87;37.47;;;32.30;46.20;;;;;;4962223;28;20481;-80
2021/06/18 10:57:12;;;;;;;42.00;39.20;;;32.40;45.50;;;;;;4961210;28;20478;-79
2021/06/18 10:59:42;;;;;;;44.40;41.80;;;32.40;46.30;;;;;;4968477;28;20462;-80
2021/06/18 11:02:34;;;;;;;43.83;41.07;;;32.30;46.20;;;;;;4967643;28;20474;-80
2021/06/18 11:05:01;;;;;;;42.50;40.00;;;32.40;45.90;;;;;;4997536;28;20490;-79
2021/06/18 11:07:30;;;;;;;41.57;38.90;;;32.50;45.50;;;;;;4971324;28;20468;-80
2021/06/18 11:09:58;;;;;;;41.20;38.60;;;32.50;45.50;;;;;;4982453;28;20562;-80
2021/06/18 11:12:37;;;;;;;38.90;36.40;;;32.70;43.90;;;;;;4969206;28;20586;-79
2021/06/18 11:15:07;;;;;;;40.20;37.80;;;32.90;42.30;;;;;;4974976;28;20566;-80
2021/06/18 11:17:43;;;;;;;42.53;39.83;;;33.00;41.70;;;;;;4981692;28;20521;-78
2021/06/18 11:20:12;;;;;;;37.17;34.90;;;33.00;42.30;;;;;;5004064;28;20462;-80
2021/06/18 11:22:46;;;;;;;37.70;35.30;;;32.70;40.70;;;;;;4997797;28;20491;-81
2021/06/18 11:25:54;;;;;;;36.27;33.87;;;32.90;41.30;;;;;;4975113;28;20523;-85
2021/06/18 11:28:48;;;;;;;39.30;36.90;;;33.10;40.60;;;;;;5006182;28;20526;-83
2021/06/18 11:31:21;;;;;;;42.03;39.63;;;33.10;41.60;;;;;;4972663;28;20556;-82
2021/06/18 11:33:56;;;;;;;40.20;37.27;;;33.20;42.20;;;;;;4990342;28;20620;-81
2021/06/18 11:36:47;;;;;;;41.83;39.40;;;33.20;42.80;;;;;;4993815;28;20555;-77
2021/06/18 11:39:25;;;;;;;39.47;37.17;;;33.30;42.30;;;;;;4961953;28;20481;-79
2021/06/18 11:42:09;;;;;;;39.40;36.87;;;33.40;42.50;;;;;;4985037;28;20474;-80
2021/06/18 11:44:38;;;;;;;40.33;37.93;;;33.50;41.30;;;;;;4989160;28;20482;-80
2021/06/18 11:47:07;;;;;;;38.20;35.80;;;33.60;41.40;;;;;;4966966;28;20459;-79
2021/06/18 11:49:35;;;;;;;37.57;35.37;;;33.70;40.40;;;;;;4965066;28;20459;-80
2021/06/18 11:52:09;;;;;;;36.87;34.67;;;33.90;39.60;;;;;;4972151;28;21179;-83
2021/06/18 11:54:40;;;;;;;38.57;36.17;;;33.80;38.50;;;;;;4972723;28;20482;-82
2021/06/18 11:57:10;;;;;;;37.77;35.50;;;33.70;38.50;;;;;;4968254;28;20482;-80
2021/06/18 11:59:41;;;;;;;39.00;36.80;;;33.70;39.00;;;;;;4967192;28;20707;-82
2021/06/18 12:02:20;;;;;;;39.50;37.17;;;33.70;37.80;;;;;;4963136;28;20506;-80
2021/06/18 12:04:59;;;;;;;40.50;37.70;;;33.80;38.30;;;;;;4965724;28;20561;-81
2021/06/18 12:07:30;;;;;;;38.70;36.30;;;33.90;37.70;;;;;;4965607;28;20466;-81
2021/06/18 12:09:57;;;;;;;42.20;39.60;;;34.20;38.20;;;;;;4962136;28;20466;-80
2021/06/18 12:12:24;;;;;;;39.77;37.57;;;34.40;38.20;;;;;;4981788;28;20501;-81
2021/06/18 12:14:57;;;;;;;41.87;39.07;;;34.40;37.00;;;;;;4968132;28;20511;-81
2021/06/18 12:17:24;;;;;;;38.83;36.43;;;34.70;37.80;;;;;;4965053;28;20467;-82
2021/06/18 12:19:53;;;;;;;38.40;36.10;;;34.80;38.20;;;;;;4963415;28;20466;-81
2021/06/18 12:22:22;;;;;;;36.70;34.50;;;35.10;37.40;;;;;;4965817;28;20471;-80
2021/06/18 12:24:51;;;;;;;37.10;34.80;;;35.10;36.10;;;;;;4960170;28;20609;-82
2021/06/18 12:27:20;;;;;;;36.73;34.53;;;35.10;36.20;;;;;;4969854;28;20464;-81
2021/06/18 12:29:52;;;;;;;37.80;35.60;;;35.10;36.50;;;;;;4962220;28;20485;-82
2021/06/18 12:32:22;;;;;;;41.17;38.60;;;35.20;36.60;;;;;;4965309;28;20820;-81
2021/06/18 12:34:49;;;;;;;40.10;37.40;;;35.30;36.70;;;;;;4958754;28;20487;-82
2021/06/18 12:37:18;;;;;;;38.80;36.50;;;35.20;36.70;;;;;;4968211;28;20565;-81
2021/06/18 12:39:49;;;;;;;41.63;39.33;;;35.10;36.40;;;;;;4965617;28;20478;-82
2021/06/18 12:42:25;;;;;;;39.53;37.13;;;35.30;36.20;;;;;;4964043;28;20561;-82